createdAt,value
2019-04-13T00:02:22.735Z,6.33
2019-04-13T00:05:07.511Z,6.10
2019-04-13T00:07:37.255Z,5.63
2019-04-13T00:10:07.551Z,6.20
2019-04-13T00:12:37.554Z,6.40
2019-04-13T00:15:08.810Z,5.70
2019-04-13T00:17:38.573Z,6.57
2019-04-13T00:20:08.696Z,6.37
2019-04-13T00:22:38.520Z,6.00
2019-04-13T00:25:08.831Z,5.77
2019-04-13T00:27:39.599Z,6.20
2019-04-13T00:30:09.588Z,6.00
2019-04-13T00:32:39.394Z,6.93
2019-04-13T00:35:09.299Z,6.50
2019-04-13T00:37:39.044Z,5.67
2019-04-13T00:40:09.228Z,6.00
2019-04-13T00:42:39.131Z,5.30
2019-04-13T00:45:09.154Z,5.13
2019-04-13T00:47:38.932Z,4.50
2019-04-13T00:50:08.902Z,5.47
2019-04-13T00:52:38.647Z,4.73
2019-04-13T00:55:08.717Z,4.60
2019-04-13T00:57:38.521Z,4.63
2019-04-13T01:00:08.776Z,4.30
2019-04-13T01:02:38.534Z,4.60
2019-04-13T01:05:08.755Z,5.27
2019-04-13T01:07:38.511Z,4.80
2019-04-13T01:10:08.322Z,5.60
2019-04-13T01:12:38.486Z,5.10
2019-04-13T01:15:08.396Z,5.03
2019-04-13T01:17:38.207Z,4.87
2019-04-13T01:20:09.535Z,4.63
2019-04-13T01:22:39.274Z,4.83
2019-04-13T01:25:09.202Z,4.57
2019-04-13T01:27:39.116Z,4.67
2019-04-13T01:30:09.864Z,4.80
2019-04-13T01:32:39.590Z,4.73
2019-04-13T01:35:09.871Z,4.67
2019-04-13T01:37:39.597Z,4.70
2019-04-13T01:40:09.598Z,4.80
2019-04-13T01:42:39.628Z,4.30
2019-04-13T01:45:09.469Z,4.93
2019-04-13T01:47:39.199Z,4.60
2019-04-13T01:50:10.181Z,4.40
2019-04-13T01:52:39.929Z,5.20
2019-04-13T01:55:09.648Z,5.00
2019-04-13T01:57:39.549Z,4.30
2019-04-13T02:00:11.219Z,4.70
2019-04-13T02:02:51.752Z,4.47
2019-04-13T02:05:44.594Z,4.80
2019-04-13T02:08:42.977Z,4.30
2019-04-13T02:11:18.569Z,4.87
2019-04-13T02:13:48.465Z,4.00
2019-04-13T02:16:18.690Z,4.87
2019-04-13T02:18:48.520Z,5.53
2019-04-13T02:21:18.467Z,4.73
2019-04-13T02:23:48.265Z,4.73
2019-04-13T02:26:20.171Z,4.70
2019-04-13T02:28:49.965Z,4.70
2019-04-13T02:31:19.907Z,5.00
2019-04-13T02:33:49.669Z,5.03
2019-04-13T02:36:19.560Z,4.90
2019-04-13T02:38:49.351Z,5.60
2019-04-13T02:41:19.449Z,5.77
2019-04-13T02:43:49.334Z,5.10
2019-04-13T02:46:19.156Z,4.47
2019-04-13T02:48:49.042Z,5.00
2019-04-13T02:51:19.022Z,5.10
2019-04-13T02:53:48.829Z,5.03
2019-04-13T02:56:18.951Z,5.60
2019-04-13T02:58:48.867Z,5.20
2019-04-13T03:01:18.642Z,5.00
2019-04-13T03:03:49.038Z,5.60
2019-04-13T03:06:19.175Z,5.40
2019-04-13T03:08:48.997Z,5.23
2019-04-13T03:11:18.814Z,5.37
2019-04-13T03:13:49.052Z,6.80
2019-04-13T03:16:34.502Z,5.33
2019-04-13T03:19:16.282Z,5.20
2019-04-13T03:21:46.064Z,6.00
2019-04-13T03:24:16.140Z,5.63
2019-04-13T03:26:46.029Z,6.50
2019-04-13T03:29:15.901Z,5.83
2019-04-13T03:31:45.719Z,5.93
2019-04-13T03:34:17.618Z,6.10
2019-04-13T03:36:47.410Z,5.70
2019-04-13T03:39:17.187Z,6.27
2019-04-13T03:41:47.135Z,5.50
2019-04-13T03:44:16.948Z,6.07
2019-04-13T03:46:46.750Z,6.97
2019-04-13T03:49:16.605Z,7.07
2019-04-13T03:51:46.394Z,6.20
2019-04-13T03:54:28.380Z,6.10
2019-04-13T03:56:58.216Z,6.40
2019-04-13T03:59:28.106Z,6.53
2019-04-13T04:01:58.693Z,6.63
2019-04-13T04:04:28.754Z,7.47
2019-04-13T04:06:58.546Z,6.60
2019-04-13T04:09:28.408Z,6.27
2019-04-13T04:11:58.272Z,6.40
2019-04-13T04:14:28.067Z,6.90
2019-04-13T04:16:58.019Z,5.70
2019-04-13T04:19:28.355Z,6.43
2019-04-13T04:21:58.398Z,6.30
2019-04-13T04:24:28.365Z,5.97
2019-04-13T04:26:58.138Z,6.70
2019-04-13T04:29:27.939Z,6.90
2019-04-13T04:31:57.946Z,6.87
2019-04-13T04:34:28.023Z,6.70
2019-04-13T04:36:57.900Z,7.20
2019-04-13T04:39:27.885Z,7.90
2019-04-13T04:41:57.791Z,6.47
2019-04-13T04:44:27.620Z,6.67
2019-04-13T04:46:57.559Z,7.17
2019-04-13T04:49:27.351Z,8.00
2019-04-13T04:51:57.527Z,7.40
2019-04-13T04:54:27.687Z,8.20
2019-04-13T04:56:57.582Z,7.30
2019-04-13T04:59:27.664Z,7.37
2019-04-13T05:01:57.521Z,7.20
2019-04-13T05:04:27.302Z,8.47
2019-04-13T05:06:57.286Z,8.33
2019-04-13T05:09:27.258Z,8.30
2019-04-13T05:11:57.110Z,8.30
2019-04-13T05:14:27.130Z,8.47
2019-04-13T05:16:57.043Z,9.30
2019-04-13T05:19:28.283Z,9.00
2019-04-13T05:22:04.063Z,8.50
2019-04-13T05:24:37.509Z,8.50
2019-04-13T05:27:27.520Z,8.00
2019-04-13T05:29:58.345Z,9.70
2019-04-13T05:32:30.957Z,9.03
2019-04-13T05:35:06.676Z,9.67
2019-04-13T05:37:39.671Z,8.87
2019-04-13T05:40:10.609Z,8.60
2019-04-13T05:42:40.709Z,9.27
2019-04-13T05:45:11.079Z,8.50
2019-04-13T05:47:40.879Z,8.70
2019-04-13T05:50:10.890Z,8.80
2019-04-13T05:52:41.125Z,8.37
2019-04-13T05:55:11.229Z,9.00
2019-04-13T05:57:41.211Z,8.10
2019-04-13T06:00:12.803Z,9.30
2019-04-13T06:02:42.637Z,8.27
2019-04-13T06:05:12.690Z,9.70
2019-04-13T06:07:43.624Z,9.30
2019-04-13T06:10:13.588Z,8.93
2019-04-13T06:12:43.727Z,8.57
2019-04-13T06:15:14.202Z,9.10
2019-04-13T06:17:44.049Z,8.00
2019-04-13T06:20:15.328Z,8.93
2019-04-13T06:22:47.094Z,8.47
2019-04-13T06:25:17.233Z,8.70
2019-04-13T06:27:47.295Z,9.60
2019-04-13T06:30:48.551Z,9.00
2019-04-13T06:33:43.087Z,8.70
2019-04-13T06:36:13.081Z,9.57
2019-04-13T06:38:43.235Z,9.10
2019-04-13T06:41:13.098Z,9.37
2019-04-13T06:43:43.076Z,10.10
2019-04-13T06:46:12.867Z,10.00
2019-04-13T06:48:42.674Z,9.80
2019-04-13T06:51:12.885Z,9.80
2019-04-13T06:53:42.687Z,13.57
2019-04-13T06:56:12.499Z,10.53
2019-04-13T06:58:42.768Z,10.70
2019-04-13T07:01:12.552Z,10.37
2019-04-13T07:03:42.370Z,10.20
2019-04-13T07:06:12.273Z,8.07
2019-04-13T07:09:01.463Z,9.20
2019-04-13T07:12:08.040Z,8.53
2019-04-13T07:14:37.847Z,8.87
2019-04-13T07:17:14.450Z,9.37
2019-04-13T07:19:43.611Z,7.70
2019-04-13T07:22:13.438Z,7.83
2019-04-13T07:24:44.236Z,8.77
2019-04-13T07:27:14.378Z,8.60
2019-04-13T07:29:44.310Z,8.23
2019-04-13T07:32:14.317Z,8.30
2019-04-13T07:34:44.174Z,8.77
2019-04-13T07:37:14.108Z,8.40
2019-04-13T07:39:48.092Z,7.37
2019-04-13T07:42:15.609Z,8.53
2019-04-13T07:45:07.386Z,8.90
2019-04-13T07:47:48.007Z,8.67
2019-04-13T07:50:36.736Z,8.90
2019-04-13T07:53:09.745Z,7.97
2019-04-13T07:55:39.709Z,7.60
2019-04-13T07:58:10.041Z,7.73
2019-04-13T08:00:40.994Z,7.60
2019-04-13T08:03:11.350Z,7.13
2019-04-13T08:05:41.180Z,6.43
2019-04-13T08:08:11.056Z,7.20
2019-04-13T08:10:44.729Z,8.20
2019-04-13T08:13:14.969Z,7.03
2019-04-13T08:15:44.975Z,6.80
2019-04-13T08:18:22.197Z,7.13
2019-04-13T08:20:52.030Z,7.13
2019-04-13T08:23:22.139Z,7.60
2019-04-13T08:25:52.060Z,6.80
2019-04-13T08:28:21.906Z,8.80
2019-04-13T08:30:51.723Z,8.70
2019-04-13T08:33:21.641Z,8.67
2019-04-13T08:35:51.508Z,8.17
2019-04-13T08:38:21.392Z,9.37
2019-04-13T08:40:51.255Z,7.70
2019-04-13T08:43:21.197Z,7.93
2019-04-13T08:45:51.073Z,7.80
2019-04-13T08:48:22.067Z,8.00
2019-04-13T08:50:51.849Z,8.90
2019-04-13T08:53:23.191Z,7.77
2019-04-13T08:55:53.081Z,8.00
2019-04-13T08:58:23.886Z,7.50
2019-04-13T09:00:53.730Z,7.07
2019-04-13T09:03:23.602Z,7.57
2019-04-13T09:05:53.403Z,6.77
2019-04-13T09:08:29.882Z,6.80
2019-04-13T09:10:55.773Z,7.30
2019-04-13T09:13:30.087Z,5.83
2019-04-13T09:15:57.782Z,6.20
2019-04-13T09:18:46.693Z,6.17
2019-04-13T09:21:24.643Z,5.90
2019-04-13T09:23:54.254Z,6.73
2019-04-13T09:26:24.356Z,5.77
2019-04-13T09:28:54.522Z,5.57
2019-04-13T09:31:25.489Z,6.17
2019-04-13T09:33:56.181Z,5.30
2019-04-13T09:36:28.652Z,5.63
2019-04-13T09:38:57.958Z,5.97
2019-04-13T09:41:27.841Z,5.83
2019-04-13T09:44:15.786Z,6.17
2019-04-13T09:46:46.297Z,5.97
2019-04-13T09:49:19.533Z,6.13
2019-04-13T09:51:48.312Z,6.07
2019-04-13T09:54:26.590Z,6.53
2019-04-13T09:56:56.471Z,6.37
2019-04-13T09:59:27.712Z,6.37
2019-04-13T10:01:57.621Z,6.33
2019-04-13T10:04:27.650Z,7.37
2019-04-13T10:06:57.533Z,6.47
2019-04-13T10:09:27.610Z,6.27
2019-04-13T10:12:10.335Z,6.47
2019-04-13T10:15:01.951Z,7.07
2019-04-13T10:17:45.007Z,6.80
2019-04-13T10:20:15.239Z,8.33
2019-04-13T10:22:45.152Z,7.10
2019-04-13T10:25:15.179Z,6.20
2019-04-13T10:27:47.633Z,6.30
2019-04-13T10:30:20.058Z,7.00
2019-04-13T10:32:48.779Z,7.23
2019-04-13T10:35:20.220Z,6.17
2019-04-13T10:37:50.043Z,7.03
2019-04-13T10:40:20.100Z,6.87
2019-04-13T10:42:49.942Z,6.47
2019-04-13T10:45:41.655Z,6.33
2019-04-13T10:48:25.132Z,6.00
2019-04-13T10:50:58.722Z,6.17
2019-04-13T10:53:30.615Z,5.80
2019-04-13T10:56:03.838Z,6.47
2019-04-13T10:58:34.305Z,6.50
2019-04-13T11:01:04.085Z,5.53
2019-04-13T11:03:34.374Z,5.93
2019-04-13T11:06:08.579Z,5.53
2019-04-13T11:08:36.216Z,5.67
2019-04-13T11:11:06.924Z,6.30
2019-04-13T11:13:36.730Z,5.50
2019-04-13T11:16:06.532Z,6.30
2019-04-13T11:18:40.087Z,6.60
2019-04-13T11:21:09.943Z,6.20
2019-04-13T11:23:45.062Z,6.67
2019-04-13T11:26:11.533Z,7.17
2019-04-13T11:28:41.426Z,6.50
2019-04-13T11:31:11.418Z,7.23
2019-04-13T11:33:42.739Z,7.23
2019-04-13T11:36:12.805Z,7.30
2019-04-13T11:38:42.721Z,7.03
2019-04-13T11:41:30.735Z,8.03
2019-04-13T11:44:20.279Z,7.70
2019-04-13T11:47:11.284Z,7.90
2019-04-13T11:49:41.641Z,7.07
2019-04-13T11:52:13.254Z,7.30
2019-04-13T11:54:43.219Z,8.37
2019-04-13T11:57:15.256Z,7.97
2019-04-13T11:59:44.872Z,7.30
2019-04-13T12:02:35.095Z,6.80
2019-04-13T12:05:39.670Z,7.53
2019-04-13T12:08:13.402Z,7.37
2019-04-13T12:11:05.052Z,7.80
2019-04-13T12:13:55.679Z,8.30
2019-04-13T12:16:52.950Z,7.57
2019-04-13T12:19:30.888Z,7.63
2019-04-13T12:22:25.770Z,8.90
2019-04-13T12:24:55.901Z,8.03
2019-04-13T12:27:26.221Z,7.97
2019-04-13T12:29:56.204Z,8.10
2019-04-13T12:32:33.855Z,8.87
2019-04-13T12:35:07.919Z,7.43
2019-04-13T12:37:36.072Z,8.93
2019-04-13T12:40:23.322Z,8.63
2019-04-13T12:42:58.075Z,7.83
2019-04-13T12:45:28.002Z,7.90
2019-04-13T12:48:01.649Z,8.13
2019-04-13T12:50:32.700Z,8.47
2019-04-13T12:53:02.559Z,7.50
2019-04-13T12:55:46.430Z,7.67
2019-04-13T12:58:36.427Z,8.47
2019-04-13T13:01:12.744Z,8.07
2019-04-13T13:03:49.729Z,8.00
2019-04-13T13:06:19.719Z,7.80
2019-04-13T13:08:49.760Z,7.60
2019-04-13T13:11:19.812Z,7.67
2019-04-13T13:13:52.485Z,7.97
2019-04-13T13:16:21.065Z,7.93
2019-04-13T13:18:50.935Z,9.17
2019-04-13T13:21:21.321Z,9.33
2019-04-13T13:23:51.878Z,9.77
2019-04-13T13:26:24.031Z,9.20
2019-04-13T13:28:53.451Z,8.90
2019-04-13T13:31:23.389Z,9.13
2019-04-13T13:33:53.426Z,9.67
2019-04-13T13:36:23.869Z,9.07
2019-04-13T13:38:53.723Z,8.80
2019-04-13T13:41:24.798Z,8.83
2019-04-13T13:43:54.690Z,10.03
2019-04-13T13:46:24.526Z,10.47
2019-04-13T13:48:54.537Z,10.57
2019-04-13T13:51:26.886Z,10.20
2019-04-13T13:53:56.687Z,8.83
2019-04-13T13:56:27.914Z,8.00
2019-04-13T13:59:03.998Z,7.10
2019-04-13T14:01:44.742Z,8.07
2019-04-13T14:04:14.712Z,8.03
2019-04-13T14:06:44.679Z,8.17
2019-04-13T14:09:14.967Z,8.20
2019-04-13T14:11:44.918Z,8.70
2019-04-13T14:14:14.814Z,8.47
2019-04-13T14:16:48.025Z,8.10
2019-04-13T14:19:17.705Z,9.07
2019-04-13T14:21:47.640Z,9.00
2019-04-13T14:24:17.741Z,9.70
2019-04-13T14:26:47.724Z,10.23
2019-04-13T14:29:18.709Z,9.93
2019-04-13T14:31:48.641Z,9.57
2019-04-13T14:34:18.606Z,10.43
2019-04-13T14:36:48.783Z,10.40
2019-04-13T14:39:18.707Z,9.80
2019-04-13T14:41:51.719Z,10.37
2019-04-13T14:44:20.251Z,9.47
2019-04-13T14:46:50.314Z,10.03
2019-04-13T14:49:20.201Z,9.70
2019-04-13T14:51:52.768Z,9.77
2019-04-13T14:54:26.970Z,9.53
2019-04-13T14:56:56.851Z,10.47
2019-04-13T14:59:26.775Z,10.30
2019-04-13T15:01:57.957Z,9.10
2019-04-13T15:04:27.895Z,10.67
2019-04-13T15:06:58.041Z,9.90
2019-04-13T15:09:28.054Z,10.00
2019-04-13T15:11:57.846Z,9.03
2019-04-13T15:14:28.128Z,10.33
2019-04-13T15:17:02.995Z,9.30
2019-04-13T15:19:38.200Z,8.90
2019-04-13T15:22:01.886Z,9.07
2019-04-13T15:24:32.758Z,9.23
2019-04-13T15:27:07.500Z,8.93
2019-04-13T15:29:36.708Z,8.00
2019-04-13T15:32:06.691Z,8.10
2019-04-13T15:34:37.980Z,9.20
2019-04-13T15:37:10.191Z,7.90
2019-04-13T15:39:43.621Z,9.10
2019-04-13T15:42:19.069Z,8.67
2019-04-13T15:44:48.337Z,9.40
2019-04-13T15:47:19.165Z,9.87
2019-04-13T15:49:50.835Z,9.10
2019-04-13T15:52:24.141Z,10.33
2019-04-13T15:55:00.658Z,9.70
2019-04-13T15:57:34.693Z,9.40
2019-04-13T16:00:08.872Z,9.70
2019-04-13T16:02:40.774Z,10.80
2019-04-13T16:05:11.585Z,10.17
2019-04-13T16:07:42.759Z,11.00
2019-04-13T16:10:37.353Z,10.33
2019-04-13T16:13:08.801Z,9.77
2019-04-13T16:15:40.236Z,10.03
2019-04-13T16:18:10.971Z,10.20
2019-04-13T16:20:42.187Z,10.60
2019-04-13T16:23:13.073Z,10.60
2019-04-13T16:25:44.450Z,10.60
2019-04-13T16:28:32.915Z,10.13
2019-04-13T16:31:20.474Z,10.20
2019-04-13T16:34:24.222Z,9.90
2019-04-13T16:37:11.677Z,10.00
2019-04-13T16:39:41.609Z,10.13
2019-04-13T16:42:22.471Z,11.87
2019-04-13T16:45:02.752Z,10.30
2019-04-13T16:47:41.461Z,9.37
2019-04-13T16:50:28.560Z,9.83
2019-04-13T16:53:06.062Z,9.90
2019-04-13T16:55:41.568Z,9.90
2019-04-13T16:58:21.540Z,9.37
2019-04-13T17:01:12.384Z,10.23
2019-04-13T17:03:50.191Z,10.40
2019-04-13T17:06:22.005Z,9.60
2019-04-13T17:08:51.870Z,9.70
2019-04-13T17:11:21.814Z,9.70
2019-04-13T17:13:53.325Z,9.93
2019-04-13T17:16:23.445Z,10.53
2019-04-13T17:19:18.484Z,9.93
2019-04-13T17:22:11.046Z,10.17
2019-04-13T17:24:59.878Z,10.60
2019-04-13T17:27:42.164Z,9.83
2019-04-13T17:30:36.001Z,10.67
2019-04-13T17:33:14.895Z,10.50
2019-04-13T17:35:48.462Z,10.80
2019-04-13T17:38:18.456Z,10.17
2019-04-13T17:40:59.390Z,10.17
2019-04-13T17:43:54.797Z,9.53
2019-04-13T17:46:55.699Z,10.07
2019-04-13T17:49:43.092Z,10.30
2019-04-13T17:52:30.349Z,9.97
2019-04-13T17:55:11.184Z,10.10
2019-04-13T17:58:00.373Z,10.50
2019-04-13T18:00:58.402Z,9.67
2019-04-13T18:03:47.204Z,10.10
2019-04-13T18:06:35.779Z,10.10
2019-04-13T18:09:26.338Z,10.07
2019-04-13T18:12:14.251Z,9.10
2019-04-13T18:14:54.122Z,10.20
2019-04-13T18:17:45.831Z,9.10
2019-04-13T18:20:15.853Z,8.70
2019-04-13T18:22:47.230Z,9.80
2019-04-13T18:25:30.031Z,8.60
2019-04-13T18:27:49.489Z,8.13
2019-04-13T18:30:32.475Z,8.67
2019-04-13T18:32:55.664Z,9.57
2019-04-13T18:35:25.485Z,9.60
2019-04-13T18:37:56.003Z,8.80
2019-04-13T18:40:26.721Z,11.40
2019-04-13T18:43:07.050Z,11.17
2019-04-13T18:45:28.677Z,10.40
2019-04-13T18:47:59.928Z,9.80
2019-04-13T18:50:31.024Z,9.57
2019-04-13T18:53:04.913Z,11.47
2019-04-13T18:55:33.012Z,10.80
2019-04-13T18:58:03.347Z,10.67
2019-04-13T19:00:34.218Z,9.70
2019-04-13T19:03:04.967Z,10.80
2019-04-13T19:05:34.890Z,11.10
2019-04-13T19:08:04.754Z,11.50
2019-04-13T19:10:35.104Z,10.97
2019-04-13T19:13:07.677Z,10.80
2019-04-13T19:15:37.639Z,10.90
2019-04-13T19:18:09.195Z,11.70
2019-04-13T19:20:39.326Z,12.17
2019-04-13T19:23:09.159Z,12.10
2019-04-13T19:25:39.410Z,11.80
2019-04-13T19:28:09.324Z,11.13
2019-04-13T19:30:39.560Z,12.80
2019-04-13T19:33:10.432Z,11.50
2019-04-13T19:35:40.265Z,12.80
2019-04-13T19:38:10.121Z,11.43
2019-04-13T19:40:40.863Z,11.50
2019-04-13T19:43:16.385Z,12.13
2019-04-13T19:45:42.155Z,12.53
2019-04-13T19:48:12.055Z,11.30
2019-04-13T19:50:41.971Z,10.83
2019-04-13T19:53:27.858Z,12.10
2019-04-13T19:55:59.278Z,11.57
2019-04-13T19:58:29.083Z,10.37
2019-04-13T20:01:01.399Z,10.70
2019-04-13T20:03:30.894Z,10.43
2019-04-13T20:06:00.738Z,10.47
2019-04-13T20:08:30.737Z,9.50
2019-04-13T20:11:00.860Z,10.30
2019-04-13T20:13:41.625Z,10.43
2019-04-13T20:16:02.226Z,8.77
2019-04-13T20:18:32.748Z,9.10
2019-04-13T20:21:02.694Z,8.70
2019-04-13T20:23:37.943Z,9.10
2019-04-13T20:26:07.904Z,8.23
2019-04-13T20:28:38.045Z,8.37
2019-04-13T20:31:07.975Z,9.10
2019-04-13T20:33:37.790Z,9.60
2019-04-13T20:36:14.009Z,8.87
2019-04-13T20:38:39.265Z,8.47
2019-04-13T20:41:19.183Z,8.67
2019-04-13T20:43:57.628Z,9.40
2019-04-13T20:46:21.734Z,9.57
2019-04-13T20:48:51.490Z,9.63
2019-04-13T20:51:21.447Z,8.83
2019-04-13T20:53:51.701Z,9.60
2019-04-13T20:56:22.851Z,9.00
2019-04-13T20:58:53.287Z,9.50
2019-04-13T21:01:23.525Z,9.20
2019-04-13T21:03:53.542Z,9.37
2019-04-13T21:06:23.999Z,9.00
2019-04-13T21:08:55.824Z,9.47
2019-04-13T21:11:25.800Z,8.70
2019-04-13T21:14:02.633Z,9.43
2019-04-13T21:16:27.808Z,9.37
2019-04-13T21:18:58.152Z,10.87
2019-04-13T21:21:28.360Z,10.20
2019-04-13T21:23:58.381Z,9.57
2019-04-13T21:26:28.687Z,10.57
2019-04-13T21:28:58.640Z,9.83
2019-04-13T21:31:28.456Z,10.13
2019-04-13T21:33:58.799Z,10.10
2019-04-13T21:36:28.585Z,9.70
2019-04-13T21:38:58.479Z,10.10
2019-04-13T21:41:30.204Z,10.23
2019-04-13T21:44:15.271Z,10.30
2019-04-13T21:46:32.751Z,9.43
2019-04-13T21:49:03.258Z,10.37
2019-04-13T21:51:46.546Z,10.33
2019-04-13T21:54:30.147Z,11.30
2019-04-13T21:57:00.239Z,14.10
2019-04-13T21:59:30.283Z,14.40
2019-04-13T22:02:31.655Z,11.63
2019-04-13T22:05:02.988Z,12.20
2019-04-13T22:07:33.107Z,14.53
2019-04-13T22:10:03.326Z,17.40
2019-04-13T22:12:33.171Z,16.17
2019-04-13T22:15:07.442Z,26.17
2019-04-13T22:17:35.643Z,23.70
2019-04-13T22:20:06.323Z,19.97
2019-04-13T22:22:36.140Z,16.87
2019-04-13T22:25:08.116Z,13.50
2019-04-13T22:27:49.479Z,12.70
2019-04-13T22:30:14.725Z,11.00
2019-04-13T22:32:49.604Z,10.67
2019-04-13T22:35:50.558Z,10.20
2019-04-13T22:38:20.379Z,10.20
2019-04-13T22:40:51.601Z,9.60
2019-04-13T22:43:21.739Z,10.33
2019-04-13T22:45:51.627Z,9.97
2019-04-13T22:48:28.985Z,10.50
2019-04-13T22:51:20.580Z,10.10
2019-04-13T22:54:10.040Z,10.17
2019-04-13T22:56:44.411Z,9.43
2019-04-13T22:59:14.629Z,10.47
2019-04-13T23:01:50.549Z,9.83
2019-04-13T23:04:21.191Z,9.30
2019-04-13T23:06:51.127Z,10.20
2019-04-13T23:09:21.415Z,9.83
2019-04-13T23:11:51.975Z,10.97
2019-04-13T23:14:22.259Z,10.33
2019-04-13T23:16:52.147Z,9.90
2019-04-13T23:19:22.086Z,8.97
2019-04-13T23:21:52.960Z,9.60
2019-04-13T23:24:23.533Z,10.07
2019-04-13T23:26:53.940Z,8.90
2019-04-13T23:29:23.806Z,10.50
2019-04-13T23:31:54.350Z,9.83
2019-04-13T23:34:24.626Z,9.90
2019-04-13T23:36:55.196Z,9.70
2019-04-13T23:39:25.669Z,10.47
2019-04-13T23:41:56.184Z,9.80
2019-04-13T23:44:26.773Z,9.27
2019-04-13T23:46:56.884Z,10.10
2019-04-13T23:49:27.715Z,10.10
2019-04-13T23:51:57.953Z,8.63
2019-04-13T23:54:32.449Z,9.30
2019-04-13T23:57:20.314Z,8.70
